sensor_id;sensor_type;location;lat;lon;timestamp;pressure;altitude;pressure_sealevel;temperature;humidity
6393;BME280;3229;42.674;23.282;2023-02-17T00:01:20;95536.94;;;7.84;53.39
6393;BME280;3229;42.674;23.282;2023-02-17T00:03:48;95528.59;;;7.82;53.57
6393;BME280;3229;42.674;23.282;2023-02-17T00:06:16;95516.75;;;7.68;53.52
6393;BME280;3229;42.674;23.282;2023-02-17T00:08:44;95536.50;;;7.77;53.63
6393;BME280;3229;42.674;23.282;2023-02-17T00:11:11;95533.06;;;7.78;53.58
6393;BME280;3229;42.674;23.282;2023-02-17T00:13:38;95536.50;;;7.77;53.69
6393;BME280;3229;42.674;23.282;2023-02-17T00:16:07;95537.53;;;7.74;53.58
6393;BME280;3229;42.674;23.282;2023-02-17T00:18:34;95505.44;;;7.59;53.80
6393;BME280;3229;42.674;23.282;2023-02-17T00:21:10;95530.09;;;7.71;53.62
6393;BME280;3229;42.674;23.282;2023-02-17T00:23:37;95528.47;;;7.70;53.65
6393;BME280;3229;42.674;23.282;2023-02-17T00:26:04;95533.69;;;7.69;53.64
6393;BME280;3229;42.674;23.282;2023-02-17T00:28:31;95527.22;;;7.63;53.69
6393;BME280;3229;42.674;23.282;2023-02-17T00:30:58;95527.44;;;7.60;53.55
6393;BME280;3229;42.674;23.282;2023-02-17T00:33:26;95485.16;;;7.45;53.61
6393;BME280;3229;42.674;23.282;2023-02-17T00:35:53;95522.13;;;7.63;53.60
6393;BME280;3229;42.674;23.282;2023-02-17T00:38:20;95511.25;;;7.61;53.77
6393;BME280;3229;42.674;23.282;2023-02-17T00:40:46;95513.06;;;7.59;53.63
6393;BME280;3229;42.674;23.282;2023-02-17T00:43:13;95502.88;;;7.59;53.60
6393;BME280;3229;42.674;23.282;2023-02-17T00:45:40;95503.91;;;7.57;53.63
6393;BME280;3229;42.674;23.282;2023-02-17T00:48:07;95491.19;;;7.57;53.65
6393;BME280;3229;42.674;23.282;2023-02-17T00:50:36;95492.94;;;7.56;53.73
6393;BME280;3229;42.674;23.282;2023-02-17T00:53:03;95492.94;;;7.56;53.84
6393;BME280;3229;42.674;23.282;2023-02-17T00:55:29;95423.22;;;7.06;53.60
6393;BME280;3229;42.674;23.282;2023-02-17T00:57:56;95499.13;;;7.52;53.77
6393;BME280;3229;42.674;23.282;2023-02-17T01:00:23;95504.09;;;7.53;53.78
6393;BME280;3229;42.674;23.282;2023-02-17T01:02:50;95509.31;;;7.52;53.79
6393;BME280;3229;42.674;23.282;2023-02-17T01:05:17;95483.84;;;7.52;53.88
6393;BME280;3229;42.674;23.282;2023-02-17T01:07:45;95493.13;;;7.53;53.82
6393;BME280;3229;42.674;23.282;2023-02-17T01:10:12;95494.84;;;7.52;53.85
6393;BME280;3229;42.674;23.282;2023-02-17T01:12:39;95497.41;;;7.52;53.74
6393;BME280;3229;42.674;23.282;2023-02-17T01:15:06;95487.91;;;7.54;53.84
6393;BME280;3229;42.674;23.282;2023-02-17T01:17:33;95500.75;;;7.53;53.83
6393;BME280;3229;42.674;23.282;2023-02-17T01:20:00;95492.31;;;7.52;53.49
6393;BME280;3229;42.674;23.282;2023-02-17T01:22:27;95501.56;;;7.53;53.95
6393;BME280;3229;42.674;23.282;2023-02-17T01:24:55;95498.22;;;7.53;53.74
6393;BME280;3229;42.674;23.282;2023-02-17T01:27:22;95493.13;;;7.53;53.80
6393;BME280;3229;42.674;23.282;2023-02-17T01:29:49;95487.22;;;7.52;53.91
6393;BME280;3229;42.674;23.282;2023-02-17T01:32:16;95498.31;;;7.51;53.83
6393;BME280;3229;42.674;23.282;2023-02-17T01:34:42;95483.94;;;7.50;53.99
6393;BME280;3229;42.674;23.282;2023-02-17T01:37:09;95491.56;;;7.50;53.92
6393;BME280;3229;42.674;23.282;2023-02-17T01:39:36;95490.75;;;7.50;53.55
6393;BME280;3229;42.674;23.282;2023-02-17T01:42:04;95490.88;;;7.48;53.81
6393;BME280;3229;42.674;23.282;2023-02-17T01:44:31;95491.69;;;7.49;53.96
6393;BME280;3229;42.674;23.282;2023-02-17T01:46:58;95479.88;;;7.48;53.99
6393;BME280;3229;42.674;23.282;2023-02-17T01:49:29;95479.88;;;7.48;53.93
6393;BME280;3229;42.674;23.282;2023-02-17T01:52:02;95476.38;;;7.36;53.99
6393;BME280;3229;42.674;23.282;2023-02-17T01:54:35;95482.63;;;7.45;54.00
6393;BME280;3229;42.674;23.282;2023-02-17T01:57:05;95481.91;;;7.43;54.04
6393;BME280;3229;42.674;23.282;2023-02-17T01:59:31;95474.28;;;7.43;54.17
6393;BME280;3229;42.674;23.282;2023-02-17T02:02:01;95468.34;;;7.42;53.94
6393;BME280;3229;42.674;23.282;2023-02-17T02:04:31;95476.91;;;7.41;54.00
6393;BME280;3229;42.674;23.282;2023-02-17T02:06:59;95472.63;;;7.42;53.99
6393;BME280;3229;42.674;23.282;2023-02-17T02:09:30;95466.84;;;7.40;54.08
6393;BME280;3229;42.674;23.282;2023-02-17T02:11:58;95470.19;;;7.40;54.07
6393;BME280;3229;42.674;23.282;2023-02-17T02:14:27;95475.47;;;7.37;54.08
6393;BME280;3229;42.674;23.282;2023-02-17T02:17:00;95471.91;;;7.40;54.10
6393;BME280;3229;42.674;23.282;2023-02-17T02:19:43;95475.38;;;7.39;54.22
6393;BME280;3229;42.674;23.282;2023-02-17T02:22:39;95469.47;;;7.38;54.18
6393;BME280;3229;42.674;23.282;2023-02-17T02:25:27;95466.31;;;7.35;54.19
6393;BME280;3229;42.674;23.282;2023-02-17T02:28:05;95472.91;;;7.37;54.16
6393;BME280;3229;42.674;23.282;2023-02-17T02:30:49;95475.47;;;7.37;54.32
6393;BME280;3229;42.674;23.282;2023-02-17T02:33:32;95472.84;;;7.39;54.23
6393;BME280;3229;42.674;23.282;2023-02-17T02:36:04;95481.47;;;7.36;54.25
6393;BME280;3229;42.674;23.282;2023-02-17T02:38:40;95475.38;;;7.39;54.32
6393;BME280;3229;42.674;23.282;2023-02-17T02:41:10;95477.19;;;7.37;54.34
6393;BME280;3229;42.674;23.282;2023-02-17T02:43:40;95472.91;;;7.37;54.32
6393;BME280;3229;42.674;23.282;2023-02-17T02:46:08;95466.09;;;7.38;54.25
6393;BME280;3229;42.674;23.282;2023-02-17T02:48:36;95472.84;;;7.39;54.23
6393;BME280;3229;42.674;23.282;2023-02-17T02:51:21;95477.09;;;7.38;54.45
6393;BME280;3229;42.674;23.282;2023-02-17T02:54:05;95465.78;;;7.29;54.57
6393;BME280;3229;42.674;23.282;2023-02-17T02:56:45;95474.84;;;7.34;54.30
6393;BME280;3229;42.674;23.282;2023-02-17T02:59:23;95478.13;;;7.36;54.40
6393;BME280;3229;42.674;23.282;2023-02-17T03:01:58;95463.78;;;7.35;54.57
6393;BME280;3229;42.674;23.282;2023-02-17T03:04:31;95481.59;;;7.35;54.55
6393;BME280;3229;42.674;23.282;2023-02-17T03:07:05;95473.03;;;7.36;54.43
6393;BME280;3229;42.674;23.282;2023-02-17T03:09:34;95479.03;;;7.35;54.54
6393;BME280;3229;42.674;23.282;2023-02-17T03:12:01;95476.50;;;7.35;54.37
6393;BME280;3229;42.674;23.282;2023-02-17T03:14:34;95471.41;;;7.35;54.64
6393;BME280;3229;42.674;23.282;2023-02-17T03:17:02;95471.41;;;7.35;54.50
6393;BME280;3229;42.674;23.282;2023-02-17T03:19:31;95464.25;;;7.27;54.48
6393;BME280;3229;42.674;23.282;2023-02-17T03:22:00;95450.28;;;7.20;54.45
6393;BME280;3229;42.674;23.282;2023-02-17T03:24:31;95470.78;;;7.31;54.47
6393;BME280;3229;42.674;23.282;2023-02-17T03:26:57;95465.69;;;7.31;54.39
6393;BME280;3229;42.674;23.282;2023-02-17T03:29:24;95451.72;;;7.24;54.38
6393;BME280;3229;42.674;23.282;2023-02-17T03:31:51;95474.25;;;7.30;54.56
6393;BME280;3229;42.674;23.282;2023-02-17T03:34:18;95476.69;;;7.32;54.63
6393;BME280;3229;42.674;23.282;2023-02-17T03:36:46;95482.59;;;7.32;54.51
6393;BME280;3229;42.674;23.282;2023-02-17T03:39:13;95469.97;;;7.31;54.49
6393;BME280;3229;42.674;23.282;2023-02-17T03:41:41;95467.44;;;7.31;54.34
6393;BME280;3229;42.674;23.282;2023-02-17T03:44:07;95464.06;;;7.30;54.62
6393;BME280;3229;42.674;23.282;2023-02-17T03:46:34;95464.97;;;7.29;54.55
6393;BME280;3229;42.674;23.282;2023-02-17T03:49:03;95470.88;;;7.29;54.53
6393;BME280;3229;42.674;23.282;2023-02-17T03:51:30;95480.22;;;7.29;54.54
6393;BME280;3229;42.674;23.282;2023-02-17T03:53:58;95469.25;;;7.28;54.58
6393;BME280;3229;42.674;23.282;2023-02-17T03:56:25;95470.06;;;7.29;54.46
6393;BME280;3229;42.674;23.282;2023-02-17T03:58:52;95479.41;;;7.28;54.54
6393;BME280;3229;42.674;23.282;2023-02-17T04:01:19;95473.50;;;7.28;54.59
6393;BME280;3229;42.674;23.282;2023-02-17T04:03:46;95464.25;;;7.27;54.57
6393;BME280;3229;42.674;23.282;2023-02-17T04:06:13;95484.72;;;7.25;54.62
6393;BME280;3229;42.674;23.282;2023-02-17T04:08:40;95480.34;;;7.27;54.64
6393;BME280;3229;42.674;23.282;2023-02-17T04:11:09;95481.25;;;7.26;54.79
6393;BME280;3229;42.674;23.282;2023-02-17T04:13:36;95481.25;;;7.26;54.75
6393;BME280;3229;42.674;23.282;2023-02-17T04:16:04;95472.81;;;7.26;54.67
6393;BME280;3229;42.674;23.282;2023-02-17T04:18:31;95477.09;;;7.25;54.59
6393;BME280;3229;42.674;23.282;2023-02-17T04:20:58;95472.91;;;7.24;54.59
6393;BME280;3229;42.674;23.282;2023-02-17T04:23:25;95458.03;;;7.18;54.83
6393;BME280;3229;42.674;23.282;2023-02-17T04:25:52;95468.63;;;7.25;54.71
6393;BME280;3229;42.674;23.282;2023-02-17T04:28:20;95472.09;;;7.24;54.64
6393;BME280;3229;42.674;23.282;2023-02-17T04:30:49;95469.53;;;7.24;54.77
6393;BME280;3229;42.674;23.282;2023-02-17T04:33:16;95476.34;;;7.23;54.67
6393;BME280;3229;42.674;23.282;2023-02-17T04:35:43;95469.66;;;7.22;54.68
6393;BME280;3229;42.674;23.282;2023-02-17T04:38:10;95477.28;;;7.22;54.74
6393;BME280;3229;42.674;23.282;2023-02-17T04:40:37;95479.91;;;7.21;54.58
6393;BME280;3229;42.674;23.282;2023-02-17T04:43:04;95470.41;;;7.10;54.64
6393;BME280;3229;42.674;23.282;2023-02-17T04:45:34;95479.91;;;7.21;54.77
6393;BME280;3229;42.674;23.282;2023-02-17T04:48:01;95474.81;;;7.21;54.46
6393;BME280;3229;42.674;23.282;2023-02-17T04:50:28;95474.91;;;7.19;54.79
6393;BME280;3229;42.674;23.282;2023-02-17T04:52:54;95487.63;;;7.19;54.72
6393;BME280;3229;42.674;23.282;2023-02-17T04:55:21;95473.47;;;7.15;54.70
6393;BME280;3229;42.674;23.282;2023-02-17T04:57:48;95481.75;;;7.19;54.85
6393;BME280;3229;42.674;23.282;2023-02-17T05:00:15;95483.47;;;7.18;54.91
6393;BME280;3229;42.674;23.282;2023-02-17T05:02:43;95475.03;;;7.18;54.68
6393;BME280;3229;42.674;23.282;2023-02-17T05:05:10;95481.91;;;7.16;54.62
6393;BME280;3229;42.674;23.282;2023-02-17T05:07:39;95485.22;;;7.18;54.83
6393;BME280;3229;42.674;23.282;2023-02-17T05:10:07;95482.66;;;7.18;54.86
6393;BME280;3229;42.674;23.282;2023-02-17T05:12:34;95490.28;;;7.18;54.86
6393;BME280;3229;42.674;23.282;2023-02-17T05:15:01;95497.00;;;7.19;54.99
6393;BME280;3229;42.674;23.282;2023-02-17T05:17:28;95498.63;;;7.20;54.87
6393;BME280;3229;42.674;23.282;2023-02-17T05:19:56;95466.03;;;6.99;54.83
6393;BME280;3229;42.674;23.282;2023-02-17T05:22:23;95500.25;;;7.21;54.79
6393;BME280;3229;42.674;23.282;2023-02-17T05:24:50;95512.16;;;7.20;54.93
6393;BME280;3229;42.674;23.282;2023-02-17T05:27:17;95512.97;;;7.21;54.83
6393;BME280;3229;42.674;23.282;2023-02-17T05:29:44;95515.63;;;7.19;54.79
6393;BME280;3229;42.674;23.282;2023-02-17T05:32:11;95515.44;;;7.22;54.75
6393;BME280;3229;42.674;23.282;2023-02-17T05:34:38;95516.25;;;7.23;54.78
6393;BME280;3229;42.674;23.282;2023-02-17T05:37:06;95509.44;;;7.23;54.88
6393;BME280;3229;42.674;23.282;2023-02-17T05:39:33;95512.69;;;7.25;54.95
6393;BME280;3229;42.674;23.282;2023-02-17T05:41:59;95506.69;;;7.26;54.96
6393;BME280;3229;42.674;23.282;2023-02-17T05:44:26;95535.19;;;7.32;54.89
6393;BME280;3229;42.674;23.282;2023-02-17T05:46:53;95534.09;;;7.36;54.45
6393;BME280;3229;42.674;23.282;2023-02-17T05:49:20;95528.81;;;7.39;54.85
6393;BME280;3229;42.674;23.282;2023-02-17T05:51:47;95535.88;;;7.48;54.80
6393;BME280;3229;42.674;23.282;2023-02-17T05:54:15;95535.56;;;7.52;54.83
6393;BME280;3229;42.674;23.282;2023-02-17T05:56:42;95538.75;;;7.56;54.86
6393;BME280;3229;42.674;23.282;2023-02-17T05:59:09;95543.44;;;7.62;54.61
6393;BME280;3229;42.674;23.282;2023-02-17T06:01:36;95544.38;;;7.74;54.45
6393;BME280;3229;42.674;23.282;2023-02-17T06:04:03;95522.56;;;7.70;54.45
6393;BME280;3229;42.674;23.282;2023-02-17T06:06:30;95535.63;;;7.91;54.24
6393;BME280;3229;42.674;23.282;2023-02-17T06:08:57;95530.84;;;7.99;54.20
6393;BME280;3229;42.674;23.282;2023-02-17T06:11:25;95539.72;;;8.19;64.51
6393;BME280;3229;42.674;23.282;2023-02-17T06:13:52;95525.72;;;9.23;92.55
6393;BME280;3229;42.674;23.282;2023-02-17T06:16:18;95532.81;;;10.37;86.92
6393;BME280;3229;42.674;23.282;2023-02-17T06:18:45;95521.72;;;11.36;81.60
6393;BME280;3229;42.674;23.282;2023-02-17T06:21:12;95534.22;;;12.24;77.57
6393;BME280;3229;42.674;23.282;2023-02-17T06:23:39;95532.75;;;13.02;75.77
6393;BME280;3229;42.674;23.282;2023-02-17T06:26:06;95534.22;;;13.74;75.04
6393;BME280;3229;42.674;23.282;2023-02-17T06:28:34;95538.72;;;14.38;73.02
6393;BME280;3229;42.674;23.282;2023-02-17T06:31:01;95540.69;;;14.91;71.49
6393;BME280;3229;42.674;23.282;2023-02-17T06:33:27;95546.13;;;15.16;69.42
6393;BME280;3229;42.674;23.282;2023-02-17T06:35:54;95550.41;;;15.25;67.35
6393;BME280;3229;42.674;23.282;2023-02-17T06:38:21;95533.81;;;15.27;65.62
6393;BME280;3229;42.674;23.282;2023-02-17T06:40:49;95550.94;;;15.46;63.99
6393;BME280;3229;42.674;23.282;2023-02-17T06:43:15;95543.59;;;15.69;62.43
6393;BME280;3229;42.674;23.282;2023-02-17T06:45:44;95547.56;;;15.99;61.13
6393;BME280;3229;42.674;23.282;2023-02-17T06:48:10;95552.44;;;16.28;60.19
6393;BME280;3229;42.674;23.282;2023-02-17T06:50:38;95551.34;;;16.65;58.99
6393;BME280;3229;42.674;23.282;2023-02-17T06:53:04;95555.22;;;16.95;58.00
6393;BME280;3229;42.674;23.282;2023-02-17T06:55:31;95559.34;;;17.22;57.07
6393;BME280;3229;42.674;23.282;2023-02-17T06:57:59;95557.97;;;17.52;56.10
6393;BME280;3229;42.674;23.282;2023-02-17T07:00:26;95557.38;;;17.83;55.19
6393;BME280;3229;42.674;23.282;2023-02-17T07:02:54;95557.72;;;18.21;54.24
6393;BME280;3229;42.674;23.282;2023-02-17T07:05:21;95553.28;;;18.62;53.37
6393;BME280;3229;42.674;23.282;2023-02-17T07:07:48;95529.09;;;18.86;52.47
6393;BME280;3229;42.674;23.282;2023-02-17T07:10:17;95553.78;;;19.44;51.54
6393;BME280;3229;42.674;23.282;2023-02-17T07:12:44;95558.72;;;19.85;50.85
6393;BME280;3229;42.674;23.282;2023-02-17T07:15:11;95570.41;;;20.27;49.94
6393;BME280;3229;42.674;23.282;2023-02-17T07:17:38;95571.28;;;20.72;49.13
6393;BME280;3229;42.674;23.282;2023-02-17T07:20:08;95558.72;;;21.05;48.21
6393;BME280;3229;42.674;23.282;2023-02-17T07:22:35;95573.47;;;21.64;47.49
6393;BME280;3229;42.674;23.282;2023-02-17T07:25:02;95569.44;;;22.04;46.62
6393;BME280;3229;42.674;23.282;2023-02-17T07:27:29;95578.81;;;22.48;45.88
6393;BME280;3229;42.674;23.282;2023-02-17T07:29:56;95584.50;;;22.86;45.55
6393;BME280;3229;42.674;23.282;2023-02-17T07:32:23;95588.13;;;23.26;44.85
6393;BME280;3229;42.674;23.282;2023-02-17T07:34:50;95577.59;;;23.61;44.38
6393;BME280;3229;42.674;23.282;2023-02-17T07:37:18;95585.75;;;23.93;43.90
6393;BME280;3229;42.674;23.282;2023-02-17T07:39:46;95577.94;;;24.19;43.46
6393;BME280;3229;42.674;23.282;2023-02-17T07:42:13;95594.25;;;24.48;42.73
6393;BME280;3229;42.674;23.282;2023-02-17T07:44:40;95594.44;;;24.73;42.48
6393;BME280;3229;42.674;23.282;2023-02-17T07:47:07;95599.22;;;25.02;41.71
6393;BME280;3229;42.674;23.282;2023-02-17T07:49:34;95594.53;;;25.31;41.10
6393;BME280;3229;42.674;23.282;2023-02-17T07:52:00;95597.59;;;25.60;40.93
6393;BME280;3229;42.674;23.282;2023-02-17T07:54:29;95580.63;;;25.82;40.64
6393;BME280;3229;42.674;23.282;2023-02-17T07:56:56;95582.84;;;26.10;39.88
6393;BME280;3229;42.674;23.282;2023-02-17T07:59:28;95584.69;;;26.35;39.46
6393;BME280;3229;42.674;23.282;2023-02-17T08:01:55;95587.53;;;26.58;39.30
6393;BME280;3229;42.674;23.282;2023-02-17T08:04:22;95591.16;;;26.82;38.70
6393;BME280;3229;42.674;23.282;2023-02-17T08:06:49;95569.03;;;26.90;38.54
6393;BME280;3229;42.674;23.282;2023-02-17T08:09:16;95523.75;;;26.76;38.27
6393;BME280;3229;42.674;23.282;2023-02-17T08:11:58;95583.38;;;27.31;38.52
6393;BME280;3229;42.674;23.282;2023-02-17T08:14:42;95577.41;;;27.42;38.15
6393;BME280;3229;42.674;23.282;2023-02-17T08:17:09;95579.69;;;27.50;38.11
6393;BME280;3229;42.674;23.282;2023-02-17T08:19:35;95592.53;;;27.58;37.90
6393;BME280;3229;42.674;23.282;2023-02-17T08:22:02;95582.47;;;27.55;37.60
6393;BME280;3229;42.674;23.282;2023-02-17T08:24:29;95527.34;;;27.00;37.73
6393;BME280;3229;42.674;23.282;2023-02-17T08:26:57;95573.34;;;27.02;38.56
6393;BME280;3229;42.674;23.282;2023-02-17T08:29:24;95577.56;;;26.67;38.47
6393;BME280;3229;42.674;23.282;2023-02-17T08:31:51;95571.59;;;26.28;38.65
6393;BME280;3229;42.674;23.282;2023-02-17T08:34:19;95572.69;;;25.89;38.12
6393;BME280;3229;42.674;23.282;2023-02-17T08:36:46;95568.44;;;25.49;38.45
6393;BME280;3229;42.674;23.282;2023-02-17T08:39:16;95576.03;;;25.13;38.45
6393;BME280;3229;42.674;23.282;2023-02-17T08:41:43;95569.47;;;24.77;38.90
6393;BME280;3229;42.674;23.282;2023-02-17T08:44:13;95567.72;;;24.44;38.71
6393;BME280;3229;42.674;23.282;2023-02-17T08:46:41;95557.44;;;24.10;38.73
6393;BME280;3229;42.674;23.282;2023-02-17T08:49:08;95563.81;;;23.81;39.24
6393;BME280;3229;42.674;23.282;2023-02-17T08:51:36;95555.91;;;23.54;39.03
6393;BME280;3229;42.674;23.282;2023-02-17T08:54:04;95560.63;;;23.24;39.07
6393;BME280;3229;42.674;23.282;2023-02-17T08:56:33;95539.16;;;22.87;39.06
6393;BME280;3229;42.674;23.282;2023-02-17T08:59:00;95555.34;;;22.76;38.94
6393;BME280;3229;42.674;23.282;2023-02-17T09:01:29;95558.03;;;22.54;38.88
6393;BME280;3229;42.674;23.282;2023-02-17T09:03:57;95560.84;;;22.32;39.18
6393;BME280;3229;42.674;23.282;2023-02-17T09:06:31;95557.91;;;22.13;38.73
6393;BME280;3229;42.674;23.282;2023-02-17T09:08:59;95556.53;;;21.96;39.11
6393;BME280;3229;42.674;23.282;2023-02-17T09:11:25;95552.56;;;21.78;39.06
6393;BME280;3229;42.674;23.282;2023-02-17T09:13:52;95555.41;;;21.62;39.08
6393;BME280;3229;42.674;23.282;2023-02-17T09:16:19;95549.63;;;21.45;38.98
6393;BME280;3229;42.674;23.282;2023-02-17T09:18:50;95548.38;;;21.26;38.63
6393;BME280;3229;42.674;23.282;2023-02-17T09:21:17;95549.47;;;21.17;38.93
6393;BME280;3229;42.674;23.282;2023-02-17T09:23:44;95553.53;;;21.05;38.74
6393;BME280;3229;42.674;23.282;2023-02-17T09:26:12;95549.78;;;20.93;38.81
6393;BME280;3229;42.674;23.282;2023-02-17T09:28:40;95551.41;;;20.79;38.46
6393;BME280;3229;42.674;23.282;2023-02-17T09:31:08;95557.69;;;20.70;38.48
6393;BME280;3229;42.674;23.282;2023-02-17T09:33:35;95561.16;;;20.62;38.77
6393;BME280;3229;42.674;23.282;2023-02-17T09:36:05;95557.22;;;20.51;38.68
6393;BME280;3229;42.674;23.282;2023-02-17T09:38:33;95555.66;;;20.42;38.66
6393;BME280;3229;42.674;23.282;2023-02-17T09:41:05;95539.56;;;20.24;38.68
6393;BME280;3229;42.674;23.282;2023-02-17T09:43:34;95562.78;;;20.25;38.49
6393;BME280;3229;42.674;23.282;2023-02-17T09:46:05;95555.88;;;20.18;38.64
6393;BME280;3229;42.674;23.282;2023-02-17T09:48:35;95554.34;;;20.09;38.62
6393;BME280;3229;42.674;23.282;2023-02-17T09:51:08;95559.41;;;20.02;38.52
6393;BME280;3229;42.674;23.282;2023-02-17T09:53:40;95548.94;;;19.95;38.51
6393;BME280;3229;42.674;23.282;2023-02-17T09:56:10;95546.22;;;19.89;38.55
6393;BME280;3229;42.674;23.282;2023-02-17T09:58:41;95545.28;;;19.82;38.32
6393;BME280;3229;42.674;23.282;2023-02-17T10:01:15;95550.19;;;19.76;38.39
6393;BME280;3229;42.674;23.282;2023-02-17T10:03:45;95542.44;;;19.68;38.32
6393;BME280;3229;42.674;23.282;2023-02-17T10:06:17;95530.50;;;19.59;38.78
6393;BME280;3229;42.674;23.282;2023-02-17T10:08:49;95530.50;;;19.59;38.20
6393;BME280;3229;42.674;23.282;2023-02-17T10:11:23;95535.06;;;19.57;38.29
6393;BME280;3229;42.674;23.282;2023-02-17T10:13:54;95542.56;;;19.52;38.24
6393;BME280;3229;42.674;23.282;2023-02-17T10:16:28;95539.63;;;19.47;38.31
6393;BME280;3229;42.674;23.282;2023-02-17T10:18:58;95535.97;;;19.41;38.17
6393;BME280;3229;42.674;23.282;2023-02-17T10:21:30;95529.50;;;19.37;38.18
6393;BME280;3229;42.674;23.282;2023-02-17T10:23:59;95526.44;;;19.34;38.12
6393;BME280;3229;42.674;23.282;2023-02-17T10:26:42;95517.09;;;19.24;37.63
6393;BME280;3229;42.674;23.282;2023-02-17T10:29:13;95520.16;;;19.28;38.09
6393;BME280;3229;42.674;23.282;2023-02-17T10:31:44;95516.28;;;19.24;38.14
6393;BME280;3229;42.674;23.282;2023-02-17T10:34:15;95504.47;;;19.21;38.07
6393;BME280;3229;42.674;23.282;2023-02-17T10:36:55;95510.28;;;19.23;38.02
6393;BME280;3229;42.674;23.282;2023-02-17T10:39:35;95503.66;;;19.21;38.11
6393;BME280;3229;42.674;23.282;2023-02-17T10:42:13;95513.22;;;19.20;38.00
6393;BME280;3229;42.674;23.282;2023-02-17T10:44:43;95503.81;;;19.19;37.91
6393;BME280;3229;42.674;23.282;2023-02-17T10:47:10;95504.00;;;19.18;38.04
6393;BME280;3229;42.674;23.282;2023-02-17T10:49:41;95495.75;;;19.14;37.77
6393;BME280;3229;42.674;23.282;2023-02-17T10:52:14;95488.97;;;19.13;37.90
6393;BME280;3229;42.674;23.282;2023-02-17T10:54:45;95489.59;;;19.15;37.86
6393;BME280;3229;42.674;23.282;2023-02-17T10:57:16;95486.38;;;19.13;37.81
6393;BME280;3229;42.674;23.282;2023-02-17T10:59:44;95486.19;;;19.15;37.82
6393;BME280;3229;42.674;23.282;2023-02-17T11:02:16;95482.66;;;19.08;37.68
6393;BME280;3229;42.674;23.282;2023-02-17T11:04:46;95489.75;;;19.14;37.78
6393;BME280;3229;42.674;23.282;2023-02-17T11:07:17;95466.34;;;18.99;37.78
6393;BME280;3229;42.674;23.282;2023-02-17T11:09:47;95485.72;;;19.11;37.82
6393;BME280;3229;42.674;23.282;2023-02-17T11:12:17;95488.31;;;19.11;37.84
6393;BME280;3229;42.674;23.282;2023-02-17T11:14:49;95479.72;;;19.11;37.77
6393;BME280;3229;42.674;23.282;2023-02-17T11:17:22;95484.72;;;19.12;37.79
6393;BME280;3229;42.674;23.282;2023-02-17T11:19:56;95469.22;;;19.04;37.70
6393;BME280;3229;42.674;23.282;2023-02-17T11:22:34;95477.13;;;19.11;37.57
6393;BME280;3229;42.674;23.282;2023-02-17T11:25:05;95475.34;;;19.11;37.84
6393;BME280;3229;42.674;23.282;2023-02-17T11:27:32;95482.31;;;19.11;37.66
6393;BME280;3229;42.674;23.282;2023-02-17T11:30:07;95478.94;;;19.10;37.58
6393;BME280;3229;42.674;23.282;2023-02-17T11:32:35;95390.56;;;18.58;37.70
6393;BME280;3229;42.674;23.282;2023-02-17T11:35:02;95467.56;;;19.11;37.57
6393;BME280;3229;42.674;23.282;2023-02-17T11:37:36;95465.66;;;19.05;37.59
6393;BME280;3229;42.674;23.282;2023-02-17T11:40:22;95464.00;;;19.12;37.54
6393;BME280;3229;42.674;23.282;2023-02-17T11:42:57;95428.75;;;18.95;37.39
6393;BME280;3229;42.674;23.282;2023-02-17T11:45:27;95462.28;;;19.27;46.09
6393;BME280;3229;42.674;23.282;2023-02-17T11:48:10;95440.97;;;19.40;46.68
6393;BME280;3229;42.674;23.282;2023-02-17T11:50:45;95458.31;;;19.63;45.38
6393;BME280;3229;42.674;23.282;2023-02-17T11:53:22;95455.19;;;19.67;45.23
6393;BME280;3229;42.674;23.282;2023-02-17T11:56:03;95446.63;;;19.67;45.37
6393;BME280;3229;42.674;23.282;2023-02-17T11:58:55;95447.59;;;19.66;45.10
6393;BME280;3229;42.674;23.282;2023-02-17T12:01:37;95454.75;;;19.64;44.73
6393;BME280;3229;42.674;23.282;2023-02-17T12:04:23;95453.31;;;19.61;44.41
6393;BME280;3229;42.674;23.282;2023-02-17T12:07:04;95448.44;;;19.58;43.99
6393;BME280;3229;42.674;23.282;2023-02-17T12:09:45;95432.59;;;19.53;43.68
6393;BME280;3229;42.674;23.282;2023-02-17T12:12:16;95430.06;;;19.45;43.36
6393;BME280;3229;42.674;23.282;2023-02-17T12:14:57;95403.72;;;19.33;43.14
6393;BME280;3229;42.674;23.282;2023-02-17T12:17:37;95430.25;;;19.43;42.80
6393;BME280;3229;42.674;23.282;2023-02-17T12:20:19;95426.00;;;19.42;42.72
6393;BME280;3229;42.674;23.282;2023-02-17T12:22:59;95428.78;;;19.41;42.41
6393;BME280;3229;42.674;23.282;2023-02-17T12:25:35;95412.75;;;19.37;42.15
6393;BME280;3229;42.674;23.282;2023-02-17T12:28:17;95416.53;;;19.35;41.85
6393;BME280;3229;42.674;23.282;2023-02-17T12:30:56;95406.69;;;19.30;41.64
6393;BME280;3229;42.674;23.282;2023-02-17T12:33:37;95397.63;;;19.26;41.52
6393;BME280;3229;42.674;23.282;2023-02-17T12:36:10;95406.38;;;19.25;41.52
6393;BME280;3229;42.674;23.282;2023-02-17T12:38:40;95398.16;;;19.21;41.32
6393;BME280;3229;42.674;23.282;2023-02-17T12:41:12;95395.91;;;19.18;41.07
6393;BME280;3229;42.674;23.282;2023-02-17T12:43:46;95390.06;;;19.16;40.93
6393;BME280;3229;42.674;23.282;2023-02-17T12:46:17;95390.44;;;19.13;41.04
6393;BME280;3229;42.674;23.282;2023-02-17T12:48:48;95389.59;;;19.13;40.84
6393;BME280;3229;42.674;23.282;2023-02-17T12:51:20;95383.97;;;19.09;40.84
6393;BME280;3229;42.674;23.282;2023-02-17T12:53:51;95389.50;;;19.06;40.75
6393;BME280;3229;42.674;23.282;2023-02-17T12:56:46;95387.88;;;19.05;40.55
6393;BME280;3229;42.674;23.282;2023-02-17T12:59:17;95355.09;;;18.89;40.57
6393;BME280;3229;42.674;23.282;2023-02-17T13:01:57;95375.44;;;19.00;40.42
6393;BME280;3229;42.674;23.282;2023-02-17T13:04:27;95375.59;;;18.99;40.46
6393;BME280;3229;42.674;23.282;2023-02-17T13:07:05;95371.41;;;18.98;40.30
6393;BME280;3229;42.674;23.282;2023-02-17T13:09:35;95380.97;;;18.97;40.38
6393;BME280;3229;42.674;23.282;2023-02-17T13:12:09;95383.75;;;18.96;40.30
6393;BME280;3229;42.674;23.282;2023-02-17T13:14:41;95360.50;;;18.79;40.34
6393;BME280;3229;42.674;23.282;2023-02-17T13:17:22;95378.09;;;18.92;40.29
6393;BME280;3229;42.674;23.282;2023-02-17T13:20:02;95380.69;;;18.92;40.11
6393;BME280;3229;42.674;23.282;2023-02-17T13:22:29;95341.44;;;18.72;40.08
6393;BME280;3229;42.674;23.282;2023-02-17T13:24:56;95374.03;;;18.90;40.05
6393;BME280;3229;42.674;23.282;2023-02-17T13:27:32;95368.25;;;18.88;39.91
6393;BME280;3229;42.674;23.282;2023-02-17T13:30:00;95363.56;;;18.83;40.10